createdAt,value
2022-11-04T00:02:08.005Z,7.60
2022-11-04T00:04:34.906Z,7.43
2022-11-04T00:07:01.627Z,5.03
2022-11-04T00:09:30.466Z,4.60
2022-11-04T00:12:16.405Z,5.07
2022-11-04T00:14:44.306Z,3.47
2022-11-04T00:17:22.740Z,1.93
2022-11-04T00:20:12.925Z,3.30
2022-11-04T00:23:20.367Z,3.27
2022-11-04T00:26:06.127Z,3.47
2022-11-04T00:28:45.007Z,3.50
2022-11-04T00:31:30.252Z,3.60
2022-11-04T00:33:58.925Z,0.80
2022-11-04T00:36:26.505Z,4.93
2022-11-04T00:38:53.615Z,2.93
2022-11-04T00:41:26.590Z,4.80
2022-11-04T00:43:59.591Z,3.87
2022-11-04T00:46:27.568Z,7.17
2022-11-04T00:48:54.452Z,3.97
2022-11-04T00:51:21.999Z,7.50
2022-11-04T00:53:49.490Z,7.03
2022-11-04T00:56:16.895Z,6.37
2022-11-04T00:58:46.702Z,5.77
2022-11-04T01:01:18.198Z,6.47
2022-11-04T01:03:50.101Z,5.03
2022-11-04T01:06:17.305Z,6.20
2022-11-04T01:08:44.839Z,3.73
2022-11-04T01:11:12.155Z,7.80
2022-11-04T01:13:39.987Z,6.03
2022-11-04T01:16:09.743Z,6.37
2022-11-04T01:18:37.077Z,6.73
2022-11-04T01:21:05.283Z,8.07
2022-11-04T01:23:34.812Z,7.90
2022-11-04T01:26:01.873Z,4.03
2022-11-04T01:28:28.780Z,8.43
2022-11-04T01:30:55.671Z,4.23
2022-11-04T01:33:22.431Z,3.70
2022-11-04T01:35:49.302Z,5.33
2022-11-04T01:38:16.042Z,4.40
2022-11-04T01:40:43.207Z,12.63
2022-11-04T01:43:21.061Z,11.13
2022-11-04T01:45:52.568Z,4.97
2022-11-04T01:48:25.594Z,14.73
2022-11-04T01:50:54.181Z,10.47
2022-11-04T01:57:19.839Z,10.33
2022-11-04T01:59:47.251Z,7.23
2022-11-04T02:02:14.347Z,4.60
2022-11-04T02:04:42.370Z,8.33
2022-11-04T02:07:10.635Z,12.27
2022-11-04T02:09:39.253Z,5.70
2022-11-04T02:12:25.247Z,5.83
2022-11-04T02:14:53.109Z,8.03
2022-11-04T02:17:24.377Z,11.03
2022-11-04T02:19:55.750Z,8.33
2022-11-04T02:22:47.457Z,7.60
2022-11-04T02:25:20.186Z,7.07
2022-11-04T02:28:09.056Z,10.53
2022-11-04T02:30:46.363Z,7.97
2022-11-04T02:33:42.358Z,7.33
2022-11-04T02:36:14.969Z,5.60
2022-11-04T02:38:52.361Z,8.57
2022-11-04T02:41:32.920Z,8.97
2022-11-04T02:44:21.379Z,9.23
2022-11-04T02:47:04.991Z,8.53
2022-11-04T02:49:41.582Z,9.03
2022-11-04T02:52:10.575Z,10.53
2022-11-04T02:54:42.487Z,8.40
2022-11-04T02:57:13.526Z,11.40
2022-11-04T02:59:46.675Z,4.00
2022-11-04T03:02:34.780Z,5.97
2022-11-04T03:05:02.923Z,8.67
2022-11-04T03:07:32.755Z,6.80
2022-11-04T03:10:07.648Z,8.40
2022-11-04T03:12:39.219Z,5.80
2022-11-04T03:15:11.382Z,8.47
2022-11-04T03:17:59.781Z,5.03
2022-11-04T03:20:27.773Z,4.10
2022-11-04T03:22:59.817Z,9.63
2022-11-04T03:25:36.431Z,4.43
2022-11-04T03:28:16.700Z,5.67
2022-11-04T03:30:46.299Z,7.97
2022-11-04T03:33:22.104Z,6.20
2022-11-04T03:35:49.042Z,7.77
2022-11-04T03:38:15.818Z,7.33
2022-11-04T03:40:42.736Z,8.57
2022-11-04T03:43:19.845Z,7.73
2022-11-04T03:45:46.797Z,17.50
2022-11-04T03:48:13.850Z,6.57
2022-11-04T03:50:43.164Z,8.50
2022-11-04T03:53:11.702Z,9.17
2022-11-04T03:55:44.695Z,8.33
2022-11-04T03:58:48.322Z,7.20
2022-11-04T04:01:18.221Z,4.17
2022-11-04T04:03:52.035Z,8.70
2022-11-04T04:06:23.604Z,5.43
2022-11-04T04:08:54.242Z,9.50
2022-11-04T04:11:28.346Z,8.93
2022-11-04T04:14:02.264Z,8.27
2022-11-04T04:16:39.889Z,11.77
2022-11-04T04:19:14.293Z,4.10
2022-11-04T04:21:48.600Z,8.50
2022-11-04T04:24:36.934Z,5.43
2022-11-04T04:27:22.207Z,8.53
2022-11-04T04:29:49.579Z,5.90
2022-11-04T04:32:16.957Z,8.70
2022-11-04T04:34:43.896Z,6.63
2022-11-04T04:37:16.564Z,6.40
2022-11-04T04:40:13.332Z,7.80
2022-11-04T04:42:59.224Z,4.30
2022-11-04T04:45:32.011Z,4.37
2022-11-04T04:47:59.032Z,10.13
2022-11-04T04:50:29.017Z,10.53
2022-11-04T04:52:57.235Z,10.30
2022-11-04T04:55:24.246Z,9.60
2022-11-04T04:57:51.255Z,7.43
2022-11-04T05:00:20.045Z,9.57
2022-11-04T05:02:46.926Z,12.73
2022-11-04T05:07:40.924Z,10.90
2022-11-04T05:10:09.366Z,6.80
2022-11-04T05:12:55.160Z,8.57
2022-11-04T05:15:22.008Z,7.80
2022-11-04T05:17:48.838Z,7.30
2022-11-04T05:20:15.635Z,3.63
2022-11-04T05:22:42.307Z,6.17
2022-11-04T05:25:09.272Z,13.53
2022-11-04T05:27:35.955Z,6.87
2022-11-04T05:30:03.358Z,5.40
2022-11-04T05:32:31.468Z,6.00
2022-11-04T05:34:58.417Z,6.93
2022-11-04T05:37:25.893Z,5.93
2022-11-04T05:39:53.578Z,7.90
2022-11-04T05:42:20.601Z,5.57
2022-11-04T05:44:49.781Z,10.03
2022-11-04T05:47:17.269Z,12.60
2022-11-04T05:49:44.007Z,5.60
2022-11-04T05:52:10.709Z,5.50
2022-11-04T05:54:39.336Z,11.13
2022-11-04T05:57:06.066Z,8.23
2022-11-04T05:59:32.889Z,10.40
2022-11-04T06:01:59.651Z,10.07
2022-11-04T06:04:27.322Z,10.17
2022-11-04T06:06:54.197Z,9.80
2022-11-04T06:09:21.186Z,5.33
2022-11-04T06:11:48.170Z,9.80
2022-11-04T06:14:18.758Z,11.63
2022-11-04T06:16:45.876Z,8.93
2022-11-04T06:19:15.941Z,8.57
2022-11-04T06:21:43.039Z,7.37
2022-11-04T06:24:09.848Z,8.70
2022-11-04T06:26:36.559Z,5.80
2022-11-04T06:29:03.499Z,9.67
2022-11-04T06:31:31.838Z,10.73
2022-11-04T06:33:58.572Z,6.57
2022-11-04T06:36:25.475Z,9.67
2022-11-04T06:38:52.587Z,7.07
2022-11-04T06:41:19.592Z,8.97
2022-11-04T06:43:46.378Z,7.00
2022-11-04T06:46:31.182Z,10.17
2022-11-04T06:48:58.245Z,8.00
2022-11-04T06:51:26.794Z,7.17
2022-11-04T06:53:53.893Z,10.67
2022-11-04T06:56:20.617Z,10.97
2022-11-04T06:58:49.077Z,7.33
2022-11-04T07:01:21.438Z,11.07
2022-11-04T07:03:56.577Z,8.47
2022-11-04T07:06:23.571Z,5.70
2022-11-04T07:08:53.195Z,7.83
2022-11-04T07:11:22.050Z,11.17
2022-11-04T07:13:54.561Z,7.97
2022-11-04T07:16:21.576Z,8.40
2022-11-04T07:18:49.732Z,12.43
2022-11-04T07:21:16.858Z,8.57
2022-11-04T07:23:43.689Z,5.90
2022-11-04T07:26:11.505Z,10.53
2022-11-04T07:28:39.073Z,5.63
2022-11-04T07:31:07.564Z,12.50
2022-11-04T07:33:34.616Z,6.90
2022-11-04T07:36:06.784Z,5.13
2022-11-04T07:38:33.715Z,15.33
2022-11-04T07:41:00.665Z,8.50
2022-11-04T07:43:28.021Z,5.50
2022-11-04T07:46:00.958Z,6.73
2022-11-04T07:48:27.844Z,6.83
2022-11-04T07:50:56.357Z,5.17
2022-11-04T07:53:23.304Z,9.30
2022-11-04T07:55:51.334Z,11.10
2022-11-04T07:58:19.747Z,6.73
2022-11-04T08:00:46.956Z,6.43
2022-11-04T08:03:14.106Z,10.80
2022-11-04T08:05:41.051Z,10.40
2022-11-04T08:08:07.867Z,9.30
2022-11-04T08:10:35.171Z,9.27
2022-11-04T08:13:01.932Z,8.97
2022-11-04T08:15:29.274Z,8.53
2022-11-04T08:17:56.107Z,11.47
2022-11-04T08:20:22.763Z,9.10
2022-11-04T08:22:49.523Z,9.70
2022-11-04T08:25:16.890Z,9.83
2022-11-04T08:27:44.171Z,7.10
2022-11-04T08:30:11.534Z,7.30
2022-11-04T08:32:38.251Z,11.00
2022-11-04T08:35:41.085Z,5.80
2022-11-04T08:37:54.842Z,10.33
2022-11-04T08:40:21.962Z,7.73
2022-11-04T08:42:48.916Z,9.87
2022-11-04T08:45:18.816Z,12.50
2022-11-04T08:47:45.671Z,7.13
2022-11-04T08:50:12.581Z,10.50
2022-11-04T08:52:39.999Z,6.17
2022-11-04T08:55:08.384Z,5.93
2022-11-04T08:57:35.828Z,8.93
2022-11-04T09:00:03.887Z,6.57
2022-11-04T09:02:30.725Z,10.00
2022-11-04T09:05:00.441Z,10.63
2022-11-04T09:07:27.499Z,11.27
2022-11-04T09:09:54.327Z,10.40
2022-11-04T09:12:21.680Z,8.93
2022-11-04T09:14:48.882Z,11.67
2022-11-04T09:17:34.620Z,8.40
2022-11-04T09:20:17.858Z,10.00
2022-11-04T09:22:46.053Z,5.93
2022-11-04T09:30:53.365Z,7.57
2022-11-04T09:33:25.436Z,8.47
2022-11-04T09:35:57.852Z,9.00
2022-11-04T09:38:28.680Z,7.90
2022-11-04T09:40:57.728Z,7.20
2022-11-04T09:44:02.615Z,6.73
2022-11-04T09:46:41.561Z,10.97
2022-11-04T09:49:10.981Z,11.97
2022-11-04T09:51:54.351Z,21.10
2022-11-04T09:54:47.296Z,9.23
2022-11-04T09:57:18.537Z,9.40
2022-11-04T09:59:48.456Z,9.20
2022-11-04T10:02:57.381Z,8.33
2022-11-04T10:05:47.400Z,6.30
2022-11-04T10:08:41.856Z,6.33
2022-11-04T10:11:14.546Z,7.17
2022-11-04T10:13:50.906Z,6.30
2022-11-04T10:16:41.949Z,7.43
2022-11-04T10:19:30.758Z,6.83
2022-11-04T10:22:10.143Z,11.27
2022-11-04T10:25:08.929Z,8.63
2022-11-04T10:27:53.827Z,6.30
2022-11-04T10:30:23.005Z,6.67
2022-11-04T10:32:59.655Z,6.23
2022-11-04T10:35:50.046Z,6.93
2022-11-04T10:38:17.837Z,13.00
2022-11-04T10:40:48.938Z,7.03
2022-11-04T10:43:34.785Z,12.03
2022-11-04T10:46:23.730Z,8.53
2022-11-04T10:49:15.111Z,7.47
2022-11-04T10:51:46.770Z,10.77
2022-11-04T10:54:16.597Z,12.97
2022-11-04T10:56:59.295Z,9.90
2022-11-04T10:59:54.599Z,12.97
2022-11-04T11:02:36.918Z,11.07
2022-11-04T11:05:16.585Z,8.60
2022-11-04T11:07:54.321Z,12.07
2022-11-04T11:10:31.487Z,10.70
2022-11-04T11:13:06.813Z,10.87
2022-11-04T11:15:37.257Z,12.77
2022-11-04T11:18:18.086Z,8.83
2022-11-04T11:20:50.562Z,10.23
2022-11-04T11:23:42.059Z,12.37
2022-11-04T11:26:21.102Z,11.77
2022-11-04T11:28:55.815Z,13.50
2022-11-04T11:31:26.917Z,12.93
2022-11-04T11:34:02.707Z,9.93
2022-11-04T11:36:37.729Z,13.80
2022-11-04T11:39:20.109Z,12.10
2022-11-04T11:41:57.462Z,8.83
2022-11-04T11:44:33.256Z,10.53
2022-11-04T11:47:03.210Z,15.40
2022-11-04T11:49:36.660Z,11.37
2022-11-04T11:52:22.748Z,11.27
2022-11-04T11:54:56.143Z,10.40
2022-11-04T11:57:45.212Z,11.93
2022-11-04T12:03:15.486Z,7.60
2022-11-04T12:11:50.847Z,10.37
2022-11-04T12:14:49.001Z,19.70
2022-11-04T12:17:38.250Z,8.30
2022-11-04T12:20:43.796Z,11.73
2022-11-04T12:23:12.224Z,13.00
2022-11-04T12:26:20.857Z,13.97
2022-11-04T12:29:27.483Z,10.27
2022-11-04T12:32:03.023Z,13.37
2022-11-04T12:35:07.902Z,13.37
2022-11-04T12:38:13.714Z,14.53
2022-11-04T12:41:41.790Z,14.27
2022-11-04T12:44:20.413Z,12.00
2022-11-04T12:47:13.461Z,10.73
2022-11-04T12:49:55.333Z,13.97
2022-11-04T12:52:50.411Z,15.23
2022-11-04T12:55:55.516Z,11.37
2022-11-04T12:58:40.775Z,14.33
2022-11-04T13:01:28.885Z,17.73
2022-11-04T13:04:11.026Z,15.90
2022-11-04T13:06:41.256Z,15.07
2022-11-04T13:09:37.258Z,17.50
2022-11-04T13:12:09.495Z,11.23
2022-11-04T13:14:42.333Z,15.63
2022-11-04T13:17:15.771Z,12.77
2022-11-04T13:19:49.282Z,14.77
2022-11-04T13:22:19.815Z,21.27
2022-11-04T13:24:57.363Z,16.27
2022-11-04T13:27:28.599Z,15.03
2022-11-04T13:30:26.430Z,19.23
2022-11-04T13:32:53.840Z,17.07
2022-11-04T13:36:25.679Z,16.73
2022-11-04T13:38:56.066Z,24.70
2022-11-04T13:41:58.977Z,19.43
2022-11-04T13:44:31.734Z,21.97
2022-11-04T13:47:00.377Z,16.60
2022-11-04T13:49:37.491Z,16.03
2022-11-04T13:52:15.130Z,16.83
2022-11-04T13:54:45.790Z,22.40
2022-11-04T13:57:13.606Z,25.70
2022-11-04T13:59:40.911Z,21.20
2022-11-04T14:02:13.928Z,24.43
2022-11-04T14:04:42.755Z,21.07
2022-11-04T14:07:12.823Z,21.70
2022-11-04T14:09:43.203Z,27.87
2022-11-04T14:12:19.423Z,19.77
2022-11-04T14:15:03.813Z,20.97
2022-11-04T14:17:33.587Z,21.03
2022-11-04T14:20:06.678Z,24.63
2022-11-04T14:22:37.257Z,20.83
2022-11-04T14:25:20.240Z,15.07
2022-11-04T14:27:49.162Z,19.17
2022-11-04T14:30:35.833Z,14.70
2022-11-04T14:33:09.051Z,11.60
2022-11-04T14:35:38.735Z,15.13
2022-11-04T14:38:25.053Z,12.27
2022-11-04T14:41:12.861Z,10.80
2022-11-04T14:43:43.260Z,10.87
2022-11-04T14:46:12.593Z,6.90
2022-11-04T14:48:44.109Z,8.17
2022-11-04T14:51:30.571Z,7.47
2022-11-04T14:54:06.047Z,12.70
2022-11-04T14:56:33.153Z,7.23
2022-11-04T14:59:02.430Z,12.37
2022-11-04T15:01:38.810Z,13.73
2022-11-04T15:04:16.262Z,9.50
2022-11-04T15:06:58.686Z,6.90
2022-11-04T15:09:34.814Z,5.60
2022-11-04T15:12:30.624Z,7.60
2022-11-04T15:14:58.026Z,5.67
2022-11-04T15:17:27.982Z,6.00
2022-11-04T15:19:56.533Z,3.97
2022-11-04T15:22:24.201Z,2.40
2022-11-04T15:24:51.039Z,5.03
2022-11-04T15:27:19.351Z,2.30
2022-11-04T15:29:56.616Z,4.57
2022-11-04T15:32:23.946Z,7.87
2022-11-04T15:34:51.494Z,3.83
2022-11-04T15:37:19.056Z,5.27
2022-11-04T15:39:48.482Z,5.93
2022-11-04T15:42:43.624Z,4.47
2022-11-04T15:45:22.752Z,5.47
2022-11-04T15:47:50.963Z,5.33
2022-11-04T15:50:31.564Z,3.23
2022-11-04T15:53:01.819Z,5.33
2022-11-04T15:55:37.923Z,3.20
2022-11-04T15:58:04.763Z,3.43
2022-11-04T16:00:31.654Z,5.80
2022-11-04T16:03:00.102Z,4.10
2022-11-04T16:05:33.948Z,2.50
2022-11-04T16:08:21.609Z,3.50
2022-11-04T16:10:48.991Z,1.53
2022-11-04T16:13:18.594Z,4.73
2022-11-04T16:15:48.585Z,2.57
2022-11-04T16:18:35.079Z,2.30
2022-11-04T16:21:22.262Z,3.40
2022-11-04T16:24:08.434Z,1.83
2022-11-04T16:26:41.534Z,5.60
2022-11-04T16:29:10.622Z,4.70
2022-11-04T16:31:37.690Z,2.43
2022-11-04T16:34:08.638Z,3.60
2022-11-04T16:36:41.562Z,2.50
2022-11-04T16:39:08.742Z,9.77
2022-11-04T16:41:44.273Z,4.87
2022-11-04T16:44:22.457Z,4.47
2022-11-04T16:46:49.559Z,4.23
2022-11-04T16:49:18.549Z,5.07
2022-11-04T16:51:46.051Z,4.93
2022-11-04T16:54:15.430Z,3.13
2022-11-04T16:56:42.257Z,4.57
2022-11-04T16:59:12.163Z,7.90
2022-11-04T17:01:42.488Z,9.27
2022-11-04T17:04:09.657Z,7.27
2022-11-04T17:06:37.152Z,3.63
2022-11-04T17:09:08.307Z,9.80
2022-11-04T17:11:35.091Z,7.57
2022-11-04T17:14:01.943Z,5.97
2022-11-04T17:16:28.755Z,6.60
2022-11-04T17:18:55.443Z,10.30
2022-11-04T17:21:22.923Z,9.37
2022-11-04T17:23:49.622Z,10.13
2022-11-04T17:26:16.500Z,16.27
2022-11-04T17:28:43.292Z,20.30
2022-11-04T17:31:16.615Z,32.43
2022-11-04T17:33:43.333Z,24.73
2022-11-04T17:36:14.724Z,12.80
2022-11-04T17:38:41.615Z,18.07
2022-11-04T17:41:27.057Z,9.07
2022-11-04T17:44:02.753Z,10.70
2022-11-04T17:46:38.349Z,8.13
2022-11-04T17:49:13.905Z,8.80
2022-11-04T17:51:43.041Z,6.13
2022-11-04T17:54:10.354Z,6.23
2022-11-04T17:56:37.883Z,8.23
2022-11-04T17:59:05.311Z,5.80
2022-11-04T18:01:33.751Z,5.33
2022-11-04T18:04:00.804Z,6.43
2022-11-04T18:06:30.282Z,4.70
2022-11-04T18:08:57.655Z,6.03
2022-11-04T18:11:44.776Z,3.67
2022-11-04T18:14:16.887Z,6.00
2022-11-04T18:16:48.966Z,9.23
2022-11-04T18:19:17.366Z,4.03
2022-11-04T18:21:44.313Z,8.63
2022-11-04T18:24:11.681Z,5.17
2022-11-04T18:26:39.252Z,4.87
2022-11-04T18:29:06.508Z,5.37
2022-11-04T18:31:35.853Z,6.57
2022-11-04T18:34:05.809Z,4.73
2022-11-04T18:36:33.944Z,4.63
2022-11-04T18:39:01.123Z,8.60
2022-11-04T18:41:28.184Z,5.20
2022-11-04T18:43:54.954Z,5.90
2022-11-04T18:46:21.738Z,3.27
2022-11-04T18:48:50.319Z,6.57
2022-11-04T18:51:19.783Z,8.57
2022-11-04T18:53:46.822Z,6.70
2022-11-04T18:56:16.716Z,7.30
2022-11-04T18:58:45.178Z,4.60
2022-11-04T19:01:22.541Z,8.97
2022-11-04T19:03:49.988Z,11.70
2022-11-04T19:06:19.650Z,8.20
2022-11-04T19:08:47.183Z,8.57
2022-11-04T19:11:30.298Z,11.73
2022-11-04T19:14:09.401Z,8.90
2022-11-04T19:16:37.313Z,8.83
2022-11-04T19:19:06.806Z,5.47
2022-11-04T19:21:34.200Z,6.80
2022-11-04T19:24:01.815Z,10.30
2022-11-04T19:26:31.896Z,8.23
2022-11-04T19:29:00.116Z,7.13
2022-11-04T19:31:29.118Z,7.43
2022-11-04T19:33:58.407Z,7.07
2022-11-04T19:36:27.221Z,6.00
2022-11-04T19:38:55.097Z,7.13
2022-11-04T19:41:43.680Z,6.93
2022-11-04T19:44:14.797Z,6.17
2022-11-04T19:46:42.169Z,8.60
2022-11-04T19:49:09.921Z,6.53
2022-11-04T19:51:37.432Z,3.97
2022-11-04T19:54:05.005Z,6.93
2022-11-04T19:56:33.775Z,7.37
2022-11-04T19:59:05.793Z,7.27
2022-11-04T20:01:35.137Z,8.50
2022-11-04T20:04:03.396Z,8.97
2022-11-04T20:06:32.422Z,8.33
2022-11-04T20:09:01.967Z,7.20
2022-11-04T20:11:28.695Z,8.73
2022-11-04T20:13:55.517Z,8.37
2022-11-04T20:16:31.299Z,11.30
2022-11-04T20:19:01.403Z,7.47
2022-11-04T20:21:31.239Z,8.37
2022-11-04T20:24:01.796Z,12.97
2022-11-04T20:26:30.258Z,9.07
2022-11-04T20:29:00.292Z,10.00
2022-11-04T20:31:32.977Z,13.40
2022-11-04T20:34:02.817Z,15.43
2022-11-04T20:36:29.613Z,7.27
2022-11-04T20:39:01.517Z,9.73
2022-11-04T20:41:30.466Z,7.00
2022-11-04T20:43:58.682Z,6.40
2022-11-04T20:46:28.411Z,11.50
2022-11-04T20:48:56.505Z,8.47
2022-11-04T20:54:13.031Z,12.70
2022-11-04T20:56:41.061Z,8.97
2022-11-04T20:59:18.513Z,10.70
2022-11-04T21:01:46.753Z,13.50
2022-11-04T21:04:18.335Z,8.37
2022-11-04T21:06:49.970Z,16.43
2022-11-04T21:09:18.772Z,11.30
2022-11-04T21:11:46.156Z,11.53
2022-11-04T21:14:15.127Z,12.27
2022-11-04T21:16:42.443Z,11.67
2022-11-04T21:19:13.397Z,13.40
2022-11-04T21:21:42.892Z,15.07
2022-11-04T21:24:18.777Z,13.97
2022-11-04T21:26:48.560Z,10.53
2022-11-04T21:29:17.991Z,8.20
2022-11-04T21:31:50.013Z,11.17
2022-11-04T21:34:19.563Z,10.23
2022-11-04T21:36:50.984Z,13.20
2022-11-04T21:39:17.939Z,13.83
2022-11-04T21:41:49.798Z,15.43
2022-11-04T21:44:16.952Z,16.10
2022-11-04T21:46:45.752Z,17.73
2022-11-04T21:49:13.528Z,9.97
2022-11-04T21:51:40.652Z,14.97
2022-11-04T21:54:07.732Z,8.77
2022-11-04T21:56:35.512Z,13.67
2022-11-04T21:59:03.920Z,10.17
2022-11-04T22:04:36.438Z,9.83
2022-11-04T22:07:03.122Z,12.00
2022-11-04T22:09:30.285Z,12.47
2022-11-04T22:11:57.072Z,9.60
2022-11-04T22:14:23.948Z,11.87
2022-11-04T22:17:05.638Z,8.93
2022-11-04T22:19:57.647Z,9.60
2022-11-04T22:22:30.758Z,9.03
2022-11-04T22:25:05.263Z,10.33
2022-11-04T22:27:41.828Z,7.33
2022-11-04T22:30:10.132Z,6.10
2022-11-04T22:32:37.248Z,10.97
2022-11-04T22:35:06.424Z,8.23
2022-11-04T22:38:05.102Z,10.03
2022-11-04T22:40:32.292Z,8.47
2022-11-04T22:42:59.463Z,6.53
2022-11-04T22:48:18.578Z,10.43
2022-11-04T22:50:55.962Z,9.70
2022-11-04T22:53:55.851Z,6.80
2022-11-04T22:56:41.784Z,8.80
2022-11-04T22:59:16.861Z,7.97
2022-11-04T23:01:44.110Z,10.57
2022-11-04T23:04:12.537Z,8.03
2022-11-04T23:06:40.687Z,8.50
2022-11-04T23:09:07.815Z,8.07
2022-11-04T23:11:59.616Z,10.33
2022-11-04T23:14:43.899Z,8.60
2022-11-04T23:17:36.444Z,7.90
2022-11-04T23:20:05.678Z,9.10
2022-11-04T23:22:50.922Z,10.77
2022-11-04T23:25:17.860Z,10.23
2022-11-04T23:28:05.730Z,10.13
2022-11-04T23:30:35.455Z,9.57
2022-11-04T23:33:05.024Z,12.87
2022-11-04T23:35:58.390Z,12.43
2022-11-04T23:38:25.586Z,8.27
2022-11-04T23:41:15.023Z,9.23
2022-11-04T23:43:42.129Z,13.40
2022-11-04T23:46:43.326Z,10.77
2022-11-04T23:49:30.094Z,14.33
2022-11-04T23:52:15.389Z,11.73
2022-11-04T23:55:00.829Z,9.27
2022-11-04T23:57:46.261Z,7.23
